Time;durP1;ratioP1;P1;durP2;ratioP2;P2;SDS_P1;SDS_P2;PMS_P1;PMS_P2;Temp;Humidity;BMP_temperature;BMP_pressure;BME280_temperature;BME280_humidity;BME280_pressure;Samples;Min_cycle;Max_cycle;Signal;HPM_P1;HPM_P2
2022/12/26 00:00:59;;;;;;;6.00;4.65;;;12.00;79.30;;;;;;5043604;28;20127;-84
2022/12/26 00:03:24;;;;;;;6.32;4.70;;;12.00;79.40;;;;;;5077237;28;20082;-85
2022/12/26 00:05:50;;;;;;;5.55;4.60;;;12.00;79.30;;;;;;5077373;28;20036;-84
2022/12/26 00:08:16;;;;;;;6.25;4.70;;;12.00;79.30;;;;;;5043368;28;20063;-84
2022/12/26 00:10:42;;;;;;;5.55;4.22;;;12.00;79.90;;;;;;5059275;28;20086;-84
2022/12/26 00:13:08;;;;;;;5.68;4.45;;;12.00;79.30;;;;;;5043015;28;20036;-84
2022/12/26 00:15:34;;;;;;;5.57;4.45;;;12.00;79.20;;;;;;5059226;28;20032;-85
2022/12/26 00:18:00;;;;;;;6.35;4.75;;;12.00;79.20;;;;;;5075650;28;20162;-85
2022/12/26 00:20:25;;;;;;;5.75;4.32;;;12.00;79.20;;;;;;5075391;28;20492;-84
2022/12/26 00:22:51;;;;;;;5.90;4.55;;;12.00;79.20;;;;;;5076211;28;20039;-84
2022/12/26 00:25:17;;;;;;;6.32;4.70;;;12.00;79.20;;;;;;5075357;28;20039;-84
2022/12/26 00:27:43;;;;;;;5.53;4.18;;;12.00;79.20;;;;;;5042180;28;20412;-84
2022/12/26 00:30:09;;;;;;;5.32;4.30;;;12.00;79.20;;;;;;5059459;28;20044;-84
2022/12/26 00:32:35;;;;;;;6.55;4.90;;;12.00;79.20;;;;;;5062650;28;20040;-83
2022/12/26 00:35:00;;;;;;;6.82;4.75;;;12.00;79.20;;;;;;5077865;28;20040;-85
2022/12/26 00:37:26;;;;;;;6.32;5.15;;;12.00;79.20;;;;;;5058954;28;20082;-84
2022/12/26 00:39:52;;;;;;;6.55;4.80;;;12.00;79.20;;;;;;5077045;28;20366;-84
2022/12/26 00:42:18;;;;;;;5.70;4.10;;;12.10;79.30;;;;;;5059734;28;20354;-84
2022/12/26 00:44:43;;;;;;;6.03;4.47;;;12.00;79.20;;;;;;5060134;28;20044;-85
2022/12/26 00:47:09;;;;;;;6.28;4.60;;;12.10;79.30;;;;;;5080208;28;20529;-85
2022/12/26 00:49:35;;;;;;;6.63;4.60;;;12.10;79.30;;;;;;5062590;28;20071;-84
2022/12/26 00:52:00;;;;;;;6.55;4.45;;;12.10;79.30;;;;;;5080241;28;20059;-84
2022/12/26 00:54:26;;;;;;;5.80;4.10;;;12.10;79.20;;;;;;5078731;28;20119;-85
2022/12/26 00:56:52;;;;;;;6.82;5.10;;;12.10;79.20;;;;;;5076277;28;20468;-85
2022/12/26 00:59:19;;;;;;;6.53;4.78;;;12.10;79.20;;;;;;5060569;28;20036;-85
2022/12/26 01:01:45;;;;;;;6.38;4.68;;;12.10;79.20;;;;;;5076959;28;20028;-85
2022/12/26 01:04:11;;;;;;;6.47;4.75;;;12.10;79.20;;;;;;5078183;28;20037;-85
2022/12/26 01:06:37;;;;;;;7.72;5.25;;;12.10;79.20;;;;;;5077023;28;20028;-84
2022/12/26 01:09:03;;;;;;;6.45;4.82;;;12.10;79.20;;;;;;5075112;28;20025;-85
2022/12/26 01:11:41;;;;;;;6.70;4.60;;;12.00;79.20;;;;;;5076804;28;20039;-85
2022/12/26 01:14:17;;;;;;;6.70;4.65;;;12.10;79.30;;;;;;5076771;28;20040;-84
2022/12/26 01:16:45;;;;;;;7.25;4.60;;;12.10;79.20;;;;;;5074849;28;20033;-85
2022/12/26 01:19:11;;;;;;;6.18;4.68;;;12.10;79.20;;;;;;5077154;28;20028;-84
2022/12/26 01:21:37;;;;;;;7.82;5.47;;;12.10;79.20;;;;;;5058512;28;20062;-86
2022/12/26 01:24:04;;;;;;;6.72;4.88;;;12.10;79.20;;;;;;5058797;28;20152;-85
2022/12/26 01:26:30;;;;;;;7.53;5.40;;;12.10;79.20;;;;;;5075009;28;20036;-85
2022/12/26 01:28:55;;;;;;;7.50;5.63;;;12.10;79.90;;;;;;5076202;28;20101;-85
2022/12/26 01:31:22;;;;;;;7.15;5.07;;;12.10;79.20;;;;;;5075979;28;20354;-85
2022/12/26 01:33:48;;;;;;;7.88;5.35;;;12.10;79.20;;;;;;5074309;28;20036;-85
2022/12/26 01:36:15;;;;;;;7.20;5.18;;;12.10;79.20;;;;;;5074866;28;20025;-85
2022/12/26 01:38:41;;;;;;;6.90;5.18;;;12.10;79.20;;;;;;5058073;28;20043;-85
2022/12/26 01:41:16;;;;;;;7.95;5.38;;;12.10;79.20;;;;;;5075592;28;20389;-85
2022/12/26 01:44:01;;;;;;;8.48;5.93;;;12.10;79.20;;;;;;5076157;28;20055;-84
2022/12/26 01:46:41;;;;;;;7.45;4.97;;;12.10;79.30;;;;;;5057833;28;20037;-85
2022/12/26 01:49:29;;;;;;;7.68;5.72;;;12.10;79.20;;;;;;5058162;28;20170;-85
2022/12/26 01:52:02;;;;;;;8.52;5.75;;;12.10;79.20;;;;;;5057899;28;20025;-84
2022/12/26 01:54:32;;;;;;;7.18;5.38;;;12.10;79.30;;;;;;5074099;28;20129;-85
2022/12/26 01:57:00;;;;;;;7.60;5.65;;;12.10;79.20;;;;;;5040498;28;20394;-85
2022/12/26 01:59:29;;;;;;;7.80;5.78;;;12.10;79.20;;;;;;5073886;28;20134;-85
2022/12/26 02:01:56;;;;;;;8.93;6.45;;;12.10;79.30;;;;;;5056690;28;20029;-84
2022/12/26 02:07:16;;;;;;;7.75;5.63;;;12.10;79.30;;;;;;5057055;28;20039;-85
2022/12/26 02:09:43;;;;;;;7.80;5.55;;;12.10;79.20;;;;;;5057224;28;20035;-84
2022/12/26 02:12:45;;;;;;;7.30;5.47;;;12.10;79.90;;;;;;5056428;28;20107;-84
2022/12/26 02:15:14;;;;;;;7.78;5.72;;;12.10;79.30;;;;;;4996689;28;20040;-84
2022/12/26 02:17:40;;;;;;;6.57;4.97;;;12.10;79.20;;;;;;5046288;28;20086;-84
2022/12/26 02:20:15;;;;;;;7.90;5.47;;;12.10;79.20;;;;;;5073231;28;20020;-85
2022/12/26 02:23:21;;;;;;;7.05;5.32;;;12.10;79.30;;;;;;5056722;28;20090;-84
2022/12/26 02:26:06;;;;;;;7.50;5.28;;;12.10;79.90;;;;;;5074341;28;20028;-84
2022/12/26 02:29:13;;;;;;;7.07;5.13;;;12.10;79.20;;;;;;5073465;28;20032;-85
2022/12/26 02:31:47;;;;;;;6.85;4.65;;;12.10;79.30;;;;;;5073350;28;20044;-85
2022/12/26 02:34:48;;;;;;;7.45;5.28;;;12.10;79.20;;;;;;5072977;28;20052;-85
2022/12/26 02:37:32;;;;;;;6.72;4.88;;;12.10;79.30;;;;;;5074404;28;20458;-84
2022/12/26 02:40:25;;;;;;;6.45;5.07;;;12.10;79.30;;;;;;5073250;28;20090;-85
2022/12/26 02:43:09;;;;;;;6.25;4.95;;;12.10;79.40;;;;;;5066299;28;20040;-84
2022/12/26 02:48:41;;;;;;;6.90;4.72;;;12.10;79.30;;;;;;5056544;28;20036;-84
2022/12/26 03:14:34;;;;;;;7.45;5.57;;;12.10;79.40;;;;;;5077589;28;20033;-85
2022/12/26 03:17:20;;;;;;;7.35;5.60;;;12.00;79.40;;;;;;5076373;28;20029;-84
2022/12/26 03:19:58;;;;;;;8.25;6.13;;;12.00;79.40;;;;;;5076985;28;20025;-85
2022/12/26 03:22:36;;;;;;;8.02;6.35;;;12.00;79.50;;;;;;5059645;28;20477;-84
2022/12/26 03:27:56;;;;;;;7.67;5.60;;;12.00;79.40;;;;;;5048593;28;20090;-84
2022/12/26 03:34:16;;;;;;;7.70;5.93;;;12.10;79.40;;;;;;5076328;28;20033;-84
2022/12/26 03:35:57;;;;;;;7.28;5.55;;;12.00;79.40;;;;;;5059269;28;20055;-83
2022/12/26 03:38:34;;;;;;;7.53;6.00;;;12.10;79.40;;;;;;5059058;28;20024;-84
2022/12/26 04:19:53;;;;;;;8.32;6.40;;;12.00;79.50;;;;;;5044473;28;20058;-84
2022/12/26 04:45:27;;;;;;;8.90;7.40;;;12.00;79.50;;;;;;5075517;28;20036;-84
2022/12/26 04:50:51;;;;;;;9.00;7.07;;;12.00;79.50;;;;;;5074518;28;20044;-84
2022/12/26 04:53:18;;;;;;;9.30;7.70;;;12.00;79.60;;;;;;5057403;28;20085;-84
2022/12/26 04:55:44;;;;;;;8.90;7.28;;;12.00;79.50;;;;;;5074858;28;20469;-85
2022/12/26 04:58:10;;;;;;;9.63;7.95;;;12.00;79.50;;;;;;5074271;28;20099;-83
2022/12/26 05:00:36;;;;;;;8.48;6.82;;;12.00;79.50;;;;;;5057613;28;20130;-84
2022/12/26 05:11:23;;;;;;;8.30;7.30;;;12.00;79.50;;;;;;5075449;28;20025;-84
2022/12/26 05:13:54;;;;;;;8.57;7.30;;;12.00;79.50;;;;;;5057283;28;20037;-84
2022/12/26 05:30:07;;;;;;;7.80;6.20;;;11.90;79.50;;;;;;5075229;28;20033;-83
2022/12/26 05:35:18;;;;;;;9.68;7.20;;;11.90;79.50;;;;;;5074970;28;20051;-81
2022/12/26 05:37:46;;;;;;;7.80;6.75;;;11.90;79.50;;;;;;5073657;28;20032;-85
2022/12/26 05:40:12;;;;;;;7.95;6.88;;;11.90;79.50;;;;;;5073755;28;20488;-83
2022/12/26 05:42:37;;;;;;;7.43;6.40;;;11.90;79.50;;;;;;5056598;28;20036;-83
2022/12/26 05:45:03;;;;;;;7.80;6.70;;;11.90;79.50;;;;;;5056602;28;20500;-83
2022/12/26 05:47:29;;;;;;;8.00;6.78;;;11.90;79.50;;;;;;5040140;28;20422;-84
2022/12/26 05:49:55;;;;;;;7.85;6.82;;;11.90;79.50;;;;;;5073716;28;20032;-83
2022/12/26 05:52:21;;;;;;;7.90;6.90;;;11.90;79.50;;;;;;5073392;28;20041;-84
2022/12/26 05:54:46;;;;;;;8.30;6.78;;;11.90;79.50;;;;;;5072863;28;20032;-84
2022/12/26 05:57:12;;;;;;;7.35;6.28;;;11.90;79.50;;;;;;5056674;28;20108;-84
2022/12/26 05:59:38;;;;;;;7.75;6.32;;;11.90;79.50;;;;;;5040363;28;20036;-84
2022/12/26 06:02:03;;;;;;;6.90;5.82;;;11.90;79.50;;;;;;5074144;28;20036;-83
2022/12/26 06:04:29;;;;;;;7.07;5.85;;;11.90;79.50;;;;;;5040082;28;20508;-83
2022/12/26 06:06:55;;;;;;;6.72;5.32;;;11.90;79.50;;;;;;5056584;28;20033;-83
2022/12/26 06:09:24;;;;;;;6.65;5.45;;;11.80;79.40;;;;;;5074797;28;20048;-84
2022/12/26 06:11:50;;;;;;;7.32;5.43;;;11.80;79.50;;;;;;5073690;28;20033;-84
2022/12/26 06:14:16;;;;;;;6.30;5.43;;;11.90;79.50;;;;;;5056535;28;20036;-84
2022/12/26 06:16:41;;;;;;;6.63;5.80;;;11.90;79.50;;;;;;5073178;28;20029;-84
2022/12/26 06:19:07;;;;;;;6.70;5.32;;;11.80;79.50;;;;;;5073213;28;20500;-84
2022/12/26 06:21:33;;;;;;;6.15;5.20;;;11.90;79.50;;;;;;5073836;28;20367;-84
2022/12/26 06:23:59;;;;;;;6.47;5.18;;;11.80;79.40;;;;;;5073980;28;20037;-84
2022/12/26 06:26:24;;;;;;;6.47;5.18;;;11.80;79.50;;;;;;5057039;28;20372;-84
2022/12/26 06:28:51;;;;;;;6.22;5.00;;;11.80;79.50;;;;;;5040017;28;20339;-82
2022/12/26 06:31:19;;;;;;;5.70;4.55;;;11.80;79.50;;;;;;5040211;28;20532;-84
2022/12/26 06:33:46;;;;;;;6.25;4.75;;;11.80;79.50;;;;;;5069260;28;20048;-84
2022/12/26 06:36:17;;;;;;;5.70;4.43;;;11.80;79.50;;;;;;5057746;28;20049;-83
2022/12/26 06:38:44;;;;;;;6.15;4.55;;;11.80;79.50;;;;;;5056761;28;20033;-83
2022/12/26 06:41:13;;;;;;;5.75;4.85;;;11.80;79.50;;;;;;5056678;28;20133;-83
2022/12/26 06:43:40;;;;;;;6.18;4.57;;;11.80;79.50;;;;;;5057438;28;20107;-84
2022/12/26 06:46:08;;;;;;;5.38;4.18;;;11.70;79.40;;;;;;5057862;28;20028;-83
2022/12/26 06:48:38;;;;;;;5.20;3.95;;;11.80;79.50;;;;;;5056544;28;20128;-84
2022/12/26 06:51:06;;;;;;;5.25;4.15;;;11.70;79.40;;;;;;5024527;28;20025;-83
2022/12/26 06:53:33;;;;;;;5.75;4.00;;;11.70;79.50;;;;;;5056655;28;20461;-84
2022/12/26 06:56:10;;;;;;;5.25;4.07;;;11.70;79.50;;;;;;5056324;28;20021;-84
2022/12/26 06:58:36;;;;;;;4.85;4.05;;;11.80;79.50;;;;;;5056350;28;20025;-84
2022/12/26 07:01:17;;;;;;;4.90;3.92;;;11.70;79.40;;;;;;5056203;28;20119;-83
2022/12/26 07:03:43;;;;;;;6.28;4.18;;;11.70;79.50;;;;;;5056398;28;20040;-84
2022/12/26 07:06:18;;;;;;;4.97;4.05;;;11.70;79.50;;;;;;5056393;28;20480;-84
2022/12/26 07:08:44;;;;;;;4.90;3.85;;;11.70;79.50;;;;;;5057229;28;20029;-83
2022/12/26 07:11:14;;;;;;;4.93;4.00;;;11.70;79.50;;;;;;5056435;28;20604;-84
2022/12/26 07:13:41;;;;;;;4.95;3.80;;;11.70;79.50;;;;;;5057252;28;20025;-84
2022/12/26 07:16:07;;;;;;;4.80;3.83;;;11.70;79.50;;;;;;5040112;28;20188;-83
2022/12/26 07:18:32;;;;;;;4.63;3.55;;;11.60;79.50;;;;;;5057564;28;20410;-83
2022/12/26 07:20:58;;;;;;;4.50;3.45;;;11.60;79.40;;;;;;5040099;28;20123;-83
2022/12/26 07:23:24;;;;;;;4.55;3.63;;;11.60;79.40;;;;;;5039325;28;20071;-83
2022/12/26 07:25:49;;;;;;;5.05;3.80;;;11.60;79.50;;;;;;5056782;28;20116;-83
2022/12/26 07:28:15;;;;;;;4.53;3.70;;;11.60;79.40;;;;;;5039201;28;20033;-83
2022/12/26 07:30:48;;;;;;;5.13;3.95;;;11.60;79.50;;;;;;5022689;28;20033;-84
2022/12/26 07:33:15;;;;;;;4.68;3.50;;;11.60;79.50;;;;;;5057775;28;20033;-83
2022/12/26 07:35:41;;;;;;;4.70;3.80;;;11.60;79.50;;;;;;5075664;28;20031;-82
2022/12/26 07:38:07;;;;;;;4.43;3.67;;;11.60;79.50;;;;;;5075526;28;20029;-83
2022/12/26 07:40:32;;;;;;;4.93;3.88;;;11.60;79.40;;;;;;5058900;28;20066;-84
2022/12/26 07:42:58;;;;;;;4.88;3.65;;;11.60;79.50;;;;;;5059001;28;20041;-83
2022/12/26 07:45:24;;;;;;;4.65;3.60;;;11.60;79.50;;;;;;5042160;28;20040;-83
2022/12/26 07:47:54;;;;;;;4.80;3.40;;;11.60;79.40;;;;;;5076420;28;20487;-83
2022/12/26 07:50:19;;;;;;;4.18;3.03;;;11.50;79.40;;;;;;5076510;28;20031;-83
2022/12/26 07:52:45;;;;;;;4.40;3.50;;;11.60;79.40;;;;;;5075439;28;20037;-82
2022/12/26 07:55:11;;;;;;;4.82;3.67;;;11.50;79.40;;;;;;5075562;28;20029;-83
2022/12/26 07:57:37;;;;;;;4.50;3.50;;;11.50;79.40;;;;;;5075870;28;20365;-83
2022/12/26 08:00:03;;;;;;;5.03;3.65;;;11.50;79.40;;;;;;5075960;28;20028;-83
2022/12/26 08:02:37;;;;;;;4.60;3.30;;;11.50;79.40;;;;;;5059450;28;20076;-83
2022/12/26 08:05:03;;;;;;;4.88;3.47;;;11.50;79.40;;;;;;5041925;28;20044;-83
2022/12/26 08:07:29;;;;;;;4.95;3.60;;;11.50;79.40;;;;;;5074978;28;20039;-82
2022/12/26 08:09:55;;;;;;;5.13;3.50;;;11.50;79.40;;;;;;5075455;28;20024;-82
2022/12/26 08:12:23;;;;;;;3.75;3.00;;;11.50;79.40;;;;;;5058501;28;20039;-83
2022/12/26 08:14:49;;;;;;;4.68;3.42;;;11.50;79.40;;;;;;5075103;28;20509;-82
2022/12/26 08:17:15;;;;;;;4.00;3.20;;;11.40;79.40;;;;;;5074479;28;20042;-82
2022/12/26 08:19:41;;;;;;;3.70;3.10;;;11.40;79.40;;;;;;5058606;28;20108;-82
2022/12/26 08:22:07;;;;;;;3.70;2.83;;;11.40;79.40;;;;;;5058275;28;20024;-83
2022/12/26 08:24:33;;;;;;;4.60;3.22;;;11.50;79.40;;;;;;5058070;28;20082;-83
2022/12/26 08:26:59;;;;;;;3.83;2.85;;;11.50;79.40;;;;;;5075642;28;20032;-82
2022/12/26 08:29:25;;;;;;;4.38;3.13;;;11.50;79.40;;;;;;5057892;28;20040;-81
2022/12/26 08:31:51;;;;;;;4.38;3.33;;;11.40;79.30;;;;;;5058102;28;20029;-82
2022/12/26 08:34:17;;;;;;;3.85;3.08;;;11.40;79.30;;;;;;5040857;28;20086;-85
2022/12/26 08:36:43;;;;;;;3.67;2.90;;;11.40;79.30;;;;;;5058109;28;20049;-82
2022/12/26 08:39:09;;;;;;;3.38;2.78;;;11.50;79.40;;;;;;5073901;28;20032;-82
2022/12/26 08:41:35;;;;;;;3.15;2.70;;;11.50;79.30;;;;;;5057899;28;20107;-82
2022/12/26 08:44:01;;;;;;;4.07;3.08;;;11.50;79.40;;;;;;5074413;28;20037;-83
2022/12/26 08:46:26;;;;;;;3.28;2.65;;;11.50;79.30;;;;;;5057662;28;20021;-83
2022/12/26 08:48:52;;;;;;;4.28;2.90;;;11.50;79.30;;;;;;5041713;28;20025;-82
2022/12/26 08:51:22;;;;;;;3.50;2.70;;;11.50;79.30;;;;;;5075186;28;20055;-83
2022/12/26 08:53:49;;;;;;;4.43;2.60;;;11.50;79.30;;;;;;5057897;28;20043;-82
2022/12/26 08:56:18;;;;;;;3.80;2.60;;;11.50;79.30;;;;;;5075604;28;20111;-82
2022/12/26 08:58:44;;;;;;;3.10;2.60;;;11.50;79.30;;;;;;5057518;28;20075;-80
2022/12/26 09:01:22;;;;;;;3.50;2.78;;;11.50;79.30;;;;;;5075188;28;20063;-81
2022/12/26 09:03:52;;;;;;;3.20;2.50;;;11.50;79.40;;;;;;5058140;28;20465;-80
2022/12/26 09:06:18;;;;;;;3.63;2.80;;;11.50;79.30;;;;;;5058382;28;20184;-81
2022/12/26 09:08:44;;;;;;;3.53;2.63;;;11.50;79.40;;;;;;5057992;28;20028;-81
2022/12/26 09:11:12;;;;;;;2.63;2.30;;;11.50;79.30;;;;;;5074340;28;20365;-82
2022/12/26 09:13:39;;;;;;;2.45;2.22;;;11.50;79.40;;;;;;5057796;28;20035;-83
2022/12/26 09:16:20;;;;;;;3.65;2.70;;;11.50;79.40;;;;;;5057326;28;20044;-82
2022/12/26 09:18:47;;;;;;;3.30;2.60;;;11.50;79.40;;;;;;5041050;28;20032;-82
2022/12/26 09:21:14;;;;;;;3.50;2.25;;;11.50;79.30;;;;;;5074827;28;20082;-83
2022/12/26 09:23:41;;;;;;;3.05;2.42;;;11.50;80.00;;;;;;5074746;28;20037;-83
2022/12/26 09:26:13;;;;;;;3.95;2.50;;;11.50;79.40;;;;;;5057819;28;20028;-83
2022/12/26 09:28:39;;;;;;;3.35;2.50;;;11.50;79.40;;;;;;5057945;28;20033;-83
2022/12/26 09:31:09;;;;;;;2.75;2.28;;;11.50;79.40;;;;;;5057642;28;20029;-82
2022/12/26 09:33:38;;;;;;;3.33;2.40;;;11.60;79.40;;;;;;5073802;28;20044;-83
2022/12/26 09:36:11;;;;;;;2.50;2.13;;;11.60;79.40;;;;;;5076078;28;20029;-82
2022/12/26 09:38:37;;;;;;;2.65;2.13;;;11.60;79.40;;;;;;5056970;28;20028;-84
2022/12/26 09:41:24;;;;;;;2.22;2.03;;;11.60;79.40;;;;;;5057609;28;20032;-83
2022/12/26 09:43:49;;;;;;;4.00;2.05;;;11.60;79.50;;;;;;5074133;28;20051;-81
2022/12/26 09:46:24;;;;;;;3.47;2.05;;;11.60;79.40;;;;;;5074198;28;20028;-84
2022/12/26 09:49:07;;;;;;;2.15;1.95;;;11.60;79.40;;;;;;5075949;28;20074;-85
2022/12/26 09:51:33;;;;;;;3.35;1.98;;;11.60;79.40;;;;;;5056600;28;20028;-82
2022/12/26 09:54:02;;;;;;;2.25;2.00;;;11.70;79.40;;;;;;5075587;28;20060;-84
2022/12/26 09:56:31;;;;;;;3.67;2.13;;;11.70;79.40;;;;;;5040662;28;20029;-85
2022/12/26 09:59:01;;;;;;;2.92;2.10;;;11.70;79.40;;;;;;5057900;28;20028;-84
2022/12/26 10:01:33;;;;;;;2.58;2.03;;;11.70;79.40;;;;;;5056687;28;20035;-84
2022/12/26 10:04:00;;;;;;;2.78;2.00;;;11.70;79.40;;;;;;5073436;28;20036;-84
2022/12/26 10:06:41;;;;;;;2.30;1.80;;;11.70;79.40;;;;;;5073675;28;20033;-85
2022/12/26 10:09:42;;;;;;;2.58;1.92;;;11.70;79.40;;;;;;5073600;28;20444;-83
2022/12/26 10:12:36;;;;;;;2.00;1.70;;;11.70;79.40;;;;;;5044677;28;20028;-84
2022/12/26 10:15:10;;;;;;;2.00;1.80;;;11.70;79.40;;;;;;5038815;28;20040;-84
2022/12/26 10:17:52;;;;;;;2.30;1.90;;;11.70;79.30;;;;;;5078698;28;20024;-86
2022/12/26 10:20:57;;;;;;;1.98;1.83;;;11.70;79.40;;;;;;5077593;28;20466;-84
2022/12/26 10:23:51;;;;;;;2.63;2.30;;;11.80;79.40;;;;;;5019863;28;20041;-86
2022/12/26 10:26:20;;;;;;;2.08;1.80;;;11.80;79.40;;;;;;5068983;28;20032;-85
2022/12/26 10:28:58;;;;;;;2.15;1.90;;;11.80;79.30;;;;;;5077323;28;20020;-85
2022/12/26 10:31:41;;;;;;;1.63;1.52;;;11.80;79.40;;;;;;5078396;28;20032;-84
2022/12/26 10:34:22;;;;;;;2.00;1.90;;;11.80;79.40;;;;;;5077184;28;20048;-84
2022/12/26 10:37:23;;;;;;;2.03;1.70;;;11.80;79.40;;;;;;5060797;28;20029;-83
2022/12/26 10:40:07;;;;;;;2.10;1.80;;;11.80;79.40;;;;;;5073696;28;20036;-85
2022/12/26 10:42:37;;;;;;;2.95;1.70;;;11.90;79.40;;;;;;5076522;28;20029;-82
2022/12/26 10:45:15;;;;;;;1.92;1.65;;;11.80;79.30;;;;;;5077581;28;20024;-82
2022/12/26 10:47:44;;;;;;;1.60;1.50;;;11.90;79.40;;;;;;5077519;28;20024;-83
2022/12/26 10:50:18;;;;;;;2.25;1.85;;;11.90;79.40;;;;;;5059654;28;20082;-83
2022/12/26 10:52:44;;;;;;;1.88;1.50;;;11.90;79.40;;;;;;5077966;28;20038;-85
2022/12/26 10:55:18;;;;;;;1.50;1.40;;;11.90;79.30;;;;;;5077927;28;20025;-83
2022/12/26 10:57:49;;;;;;;1.73;1.60;;;11.90;79.30;;;;;;5076767;28;20037;-83
2022/12/26 11:00:25;;;;;;;1.75;1.65;;;11.90;79.20;;;;;;5060496;28;20278;-86
2022/12/26 11:03:01;;;;;;;1.92;1.70;;;11.90;79.30;;;;;;5059652;28;20040;-84
2022/12/26 11:05:27;;;;;;;3.25;1.70;;;11.90;79.30;;;;;;5076079;28;20060;-84
2022/12/26 11:08:03;;;;;;;2.38;1.55;;;11.90;79.30;;;;;;5076918;28;20031;-84
2022/12/26 11:10:30;;;;;;;2.67;1.90;;;11.90;79.40;;;;;;5077459;28;20029;-84
2022/12/26 11:13:00;;;;;;;2.67;1.73;;;11.90;79.30;;;;;;5077079;28;20033;-84
2022/12/26 11:15:30;;;;;;;2.25;1.60;;;11.90;79.40;;;;;;5077971;28;20060;-84
2022/12/26 11:18:08;;;;;;;2.60;1.65;;;12.00;79.40;;;;;;5076447;28;20535;-84
2022/12/26 11:20:34;;;;;;;1.65;1.50;;;12.00;79.40;;;;;;5077238;28;20036;-83
2022/12/26 11:23:27;;;;;;;1.95;1.50;;;12.00;79.40;;;;;;5057878;28;20045;-84
2022/12/26 11:25:59;;;;;;;2.90;1.70;;;12.00;79.40;;;;;;5076311;28;20376;-84
2022/12/26 11:28:32;;;;;;;1.83;1.48;;;11.90;79.30;;;;;;5059528;28;20043;-84
2022/12/26 11:31:02;;;;;;;1.60;1.50;;;11.90;79.30;;;;;;5076042;28;20024;-86
2022/12/26 11:33:48;;;;;;;2.05;1.20;;;12.00;79.30;;;;;;5076008;28;20024;-86
2022/12/26 11:36:14;;;;;;;2.47;1.35;;;12.00;79.40;;;;;;5075164;28;20036;-85
2022/12/26 11:38:54;;;;;;;2.45;1.40;;;12.00;79.20;;;;;;5058991;28;20040;-83
2022/12/26 11:41:41;;;;;;;1.45;1.35;;;11.90;79.20;;;;;;5075329;28;20024;-82
2022/12/26 11:44:12;;;;;;;1.30;1.20;;;11.90;79.20;;;;;;5075850;28;20515;-84
2022/12/26 11:47:13;;;;;;;2.67;1.60;;;12.00;79.20;;;;;;5058940;28;20104;-84
2022/12/26 11:49:46;;;;;;;1.77;1.35;;;12.00;79.40;;;;;;5059095;28;20024;-83
2022/12/26 11:52:36;;;;;;;2.35;1.50;;;11.90;79.20;;;;;;5076104;28;20025;-84
2022/12/26 11:55:23;;;;;;;1.77;1.30;;;12.00;79.30;;;;;;5075676;28;20020;-83
2022/12/26 11:57:56;;;;;;;3.15;1.77;;;12.00;79.30;;;;;;5045267;28;20032;-83
2022/12/26 12:00:23;;;;;;;2.38;1.70;;;12.00;79.30;;;;;;5075359;28;20033;-83
2022/12/26 12:02:49;;;;;;;2.63;1.50;;;12.00;79.20;;;;;;5058803;28;20054;-84
2022/12/26 12:05:31;;;;;;;2.47;1.52;;;11.90;79.20;;;;;;5075393;28;20031;-84
2022/12/26 12:08:35;;;;;;;3.78;1.70;;;12.00;79.30;;;;;;5076148;28;20048;-85
2022/12/26 12:11:06;;;;;;;3.17;1.40;;;12.00;79.30;;;;;;5041682;28;20021;-84
2022/12/26 12:13:35;;;;;;;2.08;1.30;;;12.00;79.20;;;;;;5075769;28;20479;-83
2022/12/26 12:16:31;;;;;;;3.25;1.48;;;11.90;79.20;;;;;;5058362;28;20469;-83
2022/12/26 12:19:18;;;;;;;3.03;1.65;;;12.00;79.40;;;;;;5075529;28;20179;-83
2022/12/26 12:21:57;;;;;;;1.88;1.40;;;12.00;79.30;;;;;;5074561;28;20028;-84
2022/12/26 12:24:49;;;;;;;2.00;1.30;;;11.90;79.20;;;;;;5042489;28;20473;-84
2022/12/26 12:27:39;;;;;;;1.65;1.40;;;11.90;79.30;;;;;;5075057;28;20036;-83
2022/12/26 12:30:16;;;;;;;2.25;1.40;;;11.90;79.30;;;;;;5075059;28;20552;-83
2022/12/26 12:33:09;;;;;;;2.22;1.38;;;11.90;79.30;;;;;;5074640;28;20021;-84
2022/12/26 12:36:14;;;;;;;3.25;1.48;;;11.90;79.20;;;;;;5057259;28;20441;-82
2022/12/26 12:39:10;;;;;;;1.40;1.23;;;11.90;79.30;;;;;;5034998;28;20045;-83
2022/12/26 12:42:00;;;;;;;1.15;1.10;;;11.90;79.30;;;;;;5074917;28;20033;-82
2022/12/26 12:44:42;;;;;;;1.52;1.20;;;11.90;79.30;;;;;;5075430;28;20449;-83
2022/12/26 12:47:17;;;;;;;1.08;1.08;;;11.90;79.30;;;;;;5058532;28;20038;-83
2022/12/26 12:50:07;;;;;;;2.50;1.48;;;11.90;79.30;;;;;;5075284;28;20017;-83
2022/12/26 12:52:38;;;;;;;2.35;1.30;;;11.90;79.30;;;;;;5074575;28;20385;-84
2022/12/26 12:55:33;;;;;;;2.20;1.33;;;11.90;79.20;;;;;;5075420;28;20115;-84
2022/12/26 12:58:13;;;;;;;2.00;1.30;;;11.80;79.30;;;;;;5074699;28;20472;-83
2022/12/26 13:00:53;;;;;;;1.58;1.20;;;11.90;79.30;;;;;;5074279;28;20078;-83
2022/12/26 13:03:27;;;;;;;1.70;1.10;;;11.80;79.20;;;;;;5074183;28;20040;-82
2022/12/26 13:06:12;;;;;;;1.35;1.15;;;11.80;79.20;;;;;;5057792;28;20029;-83
2022/12/26 13:08:42;;;;;;;1.60;1.17;;;11.80;79.30;;;;;;5074203;28;20107;-83
2022/12/26 13:11:29;;;;;;;1.90;1.33;;;11.80;79.20;;;;;;5057878;28;20039;-83
2022/12/26 13:14:04;;;;;;;2.10;1.23;;;11.80;79.30;;;;;;5057414;28;20072;-84
2022/12/26 13:16:42;;;;;;;1.58;1.15;;;11.80;79.30;;;;;;5074620;28;20045;-83
2022/12/26 13:19:43;;;;;;;1.30;1.10;;;11.80;79.30;;;;;;5057167;28;20032;-84
2022/12/26 13:24:22;;;;;;;1.30;1.20;;;11.70;79.30;;;;;;5073320;28;20039;-84
2022/12/26 13:25:21;;;;;;;1.75;1.40;;;11.70;79.20;;;;;;5074873;28;20068;-84
2022/12/26 13:27:50;;;;;;;2.97;1.45;;;11.70;79.20;;;;;;5073733;28;20445;-84
2022/12/26 13:30:17;;;;;;;2.25;1.20;;;11.70;79.30;;;;;;5074354;28;20127;-84
2022/12/26 13:32:43;;;;;;;3.03;1.45;;;11.70;79.30;;;;;;5057085;28;20412;-83
2022/12/26 13:35:47;;;;;;;1.73;1.15;;;11.70;79.30;;;;;;5040091;28;20043;-85
2022/12/26 13:38:13;;;;;;;2.15;1.25;;;11.60;79.30;;;;;;5056878;28;20103;-84
2022/12/26 13:40:46;;;;;;;2.08;1.38;;;11.60;79.20;;;;;;5056672;28;20174;-83
2022/12/26 13:46:51;;;;;;;3.42;1.30;;;11.60;79.30;;;;;;5074642;28;20035;-84
2022/12/26 13:49:37;;;;;;;1.67;1.17;;;11.60;79.30;;;;;;5074611;28;20020;-84
2022/12/26 13:52:09;;;;;;;1.30;1.20;;;11.60;79.20;;;;;;5074335;28;20524;-83
2022/12/26 13:54:49;;;;;;;3.65;1.33;;;11.60;79.20;;;;;;5056576;28;20493;-84
2022/12/26 13:57:44;;;;;;;2.75;1.30;;;11.60;79.20;;;;;;5073600;28;20032;-84
2022/12/26 14:00:21;;;;;;;1.58;1.10;;;11.50;79.20;;;;;;5073372;28;20028;-83
2022/12/26 14:03:02;;;;;;;1.13;1.10;;;11.50;79.20;;;;;;5074780;28;20033;-84
2022/12/26 14:06:12;;;;;;;1.73;1.15;;;11.50;79.20;;;;;;5039363;28;20040;-83
2022/12/26 14:08:46;;;;;;;1.30;1.20;;;11.50;79.20;;;;;;5060394;28;20485;-84
2022/12/26 14:11:20;;;;;;;1.33;1.23;;;11.50;79.20;;;;;;5074723;28;20031;-84
2022/12/26 14:13:45;;;;;;;1.10;1.08;;;11.40;79.20;;;;;;5074120;28;20059;-85
2022/12/26 14:16:33;;;;;;;1.20;1.10;;;11.40;79.20;;;;;;5073477;28;20405;-82
2022/12/26 14:19:38;;;;;;;1.42;1.30;;;11.40;79.20;;;;;;5074810;28;20177;-84
2022/12/26 14:22:14;;;;;;;3.05;1.20;;;11.40;79.20;;;;;;5039851;28;20166;-83
2022/12/26 14:25:05;;;;;;;3.17;1.23;;;11.30;79.10;;;;;;5072696;28;20036;-84
2022/12/26 14:27:30;;;;;;;1.23;1.20;;;11.30;79.20;;;;;;5073080;28;20051;-82
2022/12/26 14:30:05;;;;;;;1.90;1.30;;;11.30;79.10;;;;;;5072974;28;20028;-83
2022/12/26 14:32:50;;;;;;;;;;;11.40;79.20;;;;;;5073427;28;20047;-83
2022/12/26 14:35:35;;;;;;;1.80;1.33;;;11.30;79.10;;;;;;5055986;28;19985;-83
2022/12/26 14:38:38;;;;;;;1.17;1.10;;;11.30;79.10;;;;;;5074379;28;20025;-83
2022/12/26 14:41:05;;;;;;;1.30;1.20;;;11.20;79.10;;;;;;5073639;28;20111;-82
2022/12/26 14:43:35;;;;;;;1.27;1.10;;;11.20;79.10;;;;;;5072680;28;20076;-82
2022/12/26 14:46:04;;;;;;;1.30;1.20;;;11.20;79.20;;;;;;5039458;28;20527;-82
2022/12/26 14:48:30;;;;;;;1.23;1.13;;;11.20;79.20;;;;;;5073887;28;20469;-83
2022/12/26 14:51:02;;;;;;;1.35;1.25;;;11.10;79.10;;;;;;5056274;28;20080;-84
2022/12/26 14:53:28;;;;;;;1.95;1.30;;;11.20;79.20;;;;;;5073478;28;20029;-83
2022/12/26 14:55:59;;;;;;;2.58;1.38;;;11.10;79.10;;;;;;5075045;28;20386;-83
2022/12/26 14:58:50;;;;;;;2.05;1.48;;;11.10;79.10;;;;;;5043094;28;20039;-83
2022/12/26 15:01:16;;;;;;;1.40;1.20;;;11.10;79.10;;;;;;5077098;28;20031;-80
2022/12/26 15:03:50;;;;;;;1.58;1.35;;;11.10;79.00;;;;;;5076935;28;20127;-82
2022/12/26 15:06:48;;;;;;;1.73;1.30;;;11.10;79.10;;;;;;5076393;28;20025;-83
2022/12/26 15:09:34;;;;;;;1.38;1.20;;;11.00;79.10;;;;;;5059469;28;20028;-83
2022/12/26 15:12:18;;;;;;;2.17;1.30;;;11.00;79.10;;;;;;5042743;28;20058;-83
2022/12/26 15:14:57;;;;;;;1.30;1.20;;;11.00;79.10;;;;;;5077311;28;20075;-82
2022/12/26 15:17:55;;;;;;;1.88;1.40;;;11.00;79.10;;;;;;5043179;28;20111;-83
2022/12/26 15:20:43;;;;;;;2.15;1.38;;;10.90;79.20;;;;;;5059471;28;20393;-82
2022/12/26 15:23:42;;;;;;;1.75;1.30;;;10.90;79.10;;;;;;5042545;28;20066;-83
2022/12/26 15:26:33;;;;;;;1.27;1.17;;;10.90;79.20;;;;;;5059280;28;20024;-82
2022/12/26 15:29:20;;;;;;;2.83;1.27;;;10.90;79.20;;;;;;5076015;28;20056;-82